Charleston Express — WDD6126 — position and weather

sailwx.info

Track history (hours):
 
Tides and Currents Weather Stations Pressure Air Temp Water Temp Dewpoint Dewpoint Depression Visibility Wind Speed Wind Dir Waves Ship Positions

Charleston Express

Owner: Marine Transport Management, Inc., Jacksonville, FL. More information available from US FCC via Universal Licensing System and Coast Guard Vessel Documentation Center.

Last reported at 2018-Jul-19 01:31 UTC. Time now 2018-Jul-19 01:47 UTC.
Position N 50°41' E 000°43'.

Length 243 m; draft 10.3 m.

Type: Ship. MMSI: 367168640.

Date/timePositionNaut miles runAvg speedWind from/ knotsBaromVisibWave heightAir tempDewpointWater temp
2018-Jul-19 01:31N 50°41' E 000°43'917.9
2018-Jul-19 01:01N 50°46' E 000°54'918.8
2018-Jul-19 00:30N 50°52' E 001°06'1019.4
2018-Jul-19 00:01N 50°59' E 001°17'1121.2
2018-Jul-18 23:30N 51°05' E 001°31'1021.0
2018-Jul-18 23:01N 51°14' E 001°40'1020.5
2018-Jul-18 22:31N 51°24' E 001°45'918.9
2018-Jul-18 22:01N 51°33' E 001°46'918.6
2018-Jul-18 21:30N 51°42' E 001°45'917.3
2018-Jul-18 21:00N 51°51' E 001°41'510.6
2018-Jul-18 20:30N 51°49' E 001°33'917.2
2018-Jul-18 20:00N 51°41' E 001°27'918.4
2018-Jul-18 19:30N 51°35' E 001°16'918.5
2018-Jul-18 19:00N 51°30' E 001°03'917.3
2018-Jul-18 18:30N 51°29' E 000°49'815.1
2018-Jul-18 18:00N 51°30' E 000°37'4 8.2
2018-Jul-18 17:31N 51°30' E 000°30'0 0.0
2018-Jul-18 17:01N 51°30' E 000°30'0 0.0
2018-Jul-18 16:31N 51°30' E 000°30'0 0.0
2018-Jul-18 16:00N 51°30' E 000°30'0 0.0
2018-Jul-18 15:30N 51°30' E 000°30'0 0.0
2018-Jul-18 15:01N 51°30' E 000°30'0 0.0
2018-Jul-18 14:31N 51°30' E 000°30'0 0.0
2018-Jul-18 13:30N 51°30' E 000°30'0 0.0
2018-Jul-18 13:00N 51°30' E 000°30'0 0.0
2018-Jul-18 12:30N 51°30' E 000°30'0 0.0
2018-Jul-18 12:00N 51°30' E 000°30'0 0.0
2018-Jul-18 11:30N 51°30' E 000°30'0 0.0
2018-Jul-18 10:31N 51°30' E 000°30'0 0.0
2018-Jul-18 10:01N 51°30' E 000°30'0 0.0
2018-Jul-18 09:30N 51°30' E 000°30'0 0.0
2018-Jul-18 09:00N 51°30' E 000°30'0 0.0
2018-Jul-18 08:31N 51°30' E 000°30'0 0.0
2018-Jul-18 08:01N 51°30' E 000°30'0 0.0
2018-Jul-18 07:31N 51°30' E 000°30'0 0.0
2018-Jul-18 07:00N 51°30' E 000°30'0 0.0
2018-Jul-18 06:31N 51°30' E 000°30'0 0.0
2018-Jul-18 06:01N 51°30' E 000°30'0 0.0
2018-Jul-18 05:30N 51°30' E 000°30'0 0.0
2018-Jul-18 05:01N 51°30' E 000°30'0 0.0
2018-Jul-18 04:30N 51°30' E 000°30'0 0.0
2018-Jul-18 04:00N 51°30' E 000°30'0 0.0
2018-Jul-18 03:31N 51°30' E 000°30'0 0.0
2018-Jul-18 03:01N 51°30' E 000°30'0 0.1
2018-Jul-18 02:30N 51°30' E 000°30'2 3.1
2018-Jul-18 02:00N 51°30' E 000°33'5 9.7
2018-Jul-18 01:30N 51°30' E 000°40'612.3
2018-Jul-18 01:00N 51°30' E 000°50'611.0
2018-Jul-18 00:30N 51°29' E 000°59'612.3
2018-Jul-18 00:00N 51°32' E 001°08'815.4
2018-Jul-17 23:30N 51°36' E 001°18'816.3
2018-Jul-17 23:00N 51°42' E 001°27'815.8
2018-Jul-17 22:30N 51°49' E 001°34'510.0
2018-Jul-17 22:00N 51°51' E 001°41'3 6.6
2018-Jul-17 21:30N 51°54' E 001°44'5 9.3
2018-Jul-17 21:00N 51°58' E 001°47'713.1
2018-Jul-17 20:30N 52°04' E 001°53'612.8
2018-Jul-17 20:00N 52°09' E 001°59'612.5
2018-Jul-17 19:30N 52°13' E 002°07'612.5
2018-Jul-17 19:00N 52°17' E 002°15'612.3
2018-Jul-17 18:30N 52°21' E 002°23'612.2
2018-Jul-17 18:00N 52°25' E 002°30'713.9
2018-Jul-17 17:30N 52°27' E 002°41'915.9
2018-Jul-17 16:55N 52°27' E 002°56'715.9
2018-Jul-17 16:30N 52°27' E 003°07'815.6
2018-Jul-17 16:00N 52°29' E 003°20'916.2
2018-Jul-17 15:28N 52°36' E 003°28'816.7
2018-Jul-17 15:00N 52°42' E 003°37'3317.0
2018-Jul-17 13:04N 53°06' E 004°13'116.8
2018-Jul-17 12:59N 53°07' E 004°15'816.2
2018-Jul-17 12:31N 53°12' E 004°24'918.0
2018-Jul-17 12:00N 53°20' E 004°31'917.4
2018-Jul-17 11:30N 53°28' E 004°39'917.7
2018-Jul-17 11:00N 53°31' E 004°52'917.4
2018-Jul-17 10:30N 53°35' E 005°06'817.2
2018-Jul-17 10:01N 53°37' E 005°19'917.2
2018-Jul-17 09:31N 53°40' E 005°33'1017.7
2018-Jul-17 08:56N 53°43' E 005°49'1018.1
2018-Jul-17 08:24N 53°46' E 006°05'410.8
2018-Jul-17 08:00N 53°42' E 006°06'1278.7 130 / 51012.8 5.4 21.016.117.0
2018-Jul-17 07:51N 53°49' E 006°22'719.5
2018-Jul-17 07:30N 53°51' E 006°33'1020.0
2018-Jul-17 07:00N 53°53' E 006°49'1020.2
2018-Jul-17 06:30N 53°55' E 007°06'1120.1
2018-Jul-17 05:58N 53°58' E 007°24'919.8
2018-Jul-17 05:30N 53°59' E 007°39'817.0
2018-Jul-17 05:00N 53°53' E 007°49'714.9
2018-Jul-17 04:30N 53°51' E 008°01'918.3
2018-Jul-17 04:01N 53°45' E 008°13'816.9
2018-Jul-17 03:31N 53°40' E 008°24'612.2
2018-Jul-17 03:00N 53°35' E 008°31'0 0.9
2018-Jul-17 02:30N 53°35' E 008°32'0 0.0
2018-Jul-17 02:00N 53°35' E 008°32'0 0.0
2018-Jul-17 01:29N 53°35' E 008°32'0 0.0
2018-Jul-17 00:59N 53°35' E 008°32'0 0.0
2018-Jul-17 00:29N 53°35' E 008°32'0 0.0
2018-Jul-16 23:29N 53°35' E 008°32'0 0.0
2018-Jul-16 22:59N 53°35' E 008°32'0 0.0
2018-Jul-16 22:29N 53°35' E 008°32'0 0.0
2018-Jul-16 21:59N 53°35' E 008°32'0 0.0
2018-Jul-16 21:29N 53°35' E 008°32'0 0.0
2018-Jul-16 20:59N 53°35' E 008°32'0 0.0
2018-Jul-16 20:29N 53°35' E 008°32'0 0.0
2018-Jul-16 19:59N 53°35' E 008°32'0 0.0
2018-Jul-16 19:29N 53°35' E 008°32'0 0.0
2018-Jul-16 18:59N 53°35' E 008°32'0 0.0
2018-Jul-16 18:29N 53°35' E 008°32'0 0.0
2018-Jul-16 17:59N 53°35' E 008°32'0 0.0
2018-Jul-16 17:29N 53°35' E 008°32'0 0.0
2018-Jul-16 16:59N 53°35' E 008°32'0 0.0
2018-Jul-16 16:29N 53°35' E 008°32'0 0.0
2018-Jul-16 15:59N 53°35' E 008°32'0 0.0
2018-Jul-16 15:29N 53°35' E 008°32'0 0.0
2018-Jul-16 14:59N 53°35' E 008°32'0 0.0
2018-Jul-16 14:29N 53°35' E 008°32'0 0.0
2018-Jul-16 13:59N 53°35' E 008°32'0 0.0
2018-Jul-16 13:29N 53°35' E 008°32'0 0.0
2018-Jul-16 12:59N 53°35' E 008°32'0 0.0
2018-Jul-16 12:29N 53°35' E 008°32'0 0.0
2018-Jul-16 11:59N 53°35' E 008°32'0 0.0
2018-Jul-16 11:29N 53°35' E 008°32'0 0.0
2018-Jul-16 10:59N 53°35' E 008°32'0 0.0
2018-Jul-16 10:29N 53°35' E 008°32'0 0.0
2018-Jul-16 09:59N 53°35' E 008°32'0 0.0
2018-Jul-16 09:29N 53°35' E 008°32'0 0.0
2018-Jul-16 08:59N 53°35' E 008°32'0 0.0
2018-Jul-16 08:29N 53°35' E 008°32'0 0.0
2018-Jul-16 07:59N 53°35' E 008°32'0 0.0
2018-Jul-16 07:29N 53°35' E 008°32'0 0.0
2018-Jul-16 06:59N 53°35' E 008°32'0 0.0
2018-Jul-16 06:29N 53°35' E 008°32'0 0.7
2018-Jul-16 06:00N 53°35' E 008°31'3 6.3
2018-Jul-16 05:30N 53°38' E 008°28'4 8.2
2018-Jul-16 05:00N 53°40' E 008°22'611.3
2018-Jul-16 04:30N 53°44' E 008°15'510.8
2018-Jul-16 04:00N 53°48' E 008°09'611.5
2018-Jul-16 03:30N 53°51' E 008°01'612.2
2018-Jul-16 03:00N 53°53' E 007°51'2 3.5
2018-Jul-16 02:30N 53°55' E 007°53'3 6.3
2018-Jul-16 02:00N 53°52' E 007°54'510.5
2018-Jul-16 01:30N 53°53' E 007°45'4 7.9
2018-Jul-16 01:00N 53°52' E 007°39'0 0.8
2018-Jul-16 00:30N 53°52' E 007°38'0 0.3
2018-Jul-16 00:00N 53°52' E 007°38'1 2.8
2018-Jul-15 23:30N 53°53' E 007°36'4 7.7
2018-Jul-15 23:00N 53°54' E 007°30'4 8.6
2018-Jul-15 22:30N 53°53' E 007°23'510.1
2018-Jul-15 22:00N 53°52' E 007°14'610.9
2018-Jul-15 21:30N 53°51' E 007°05'713.3
2018-Jul-15 21:00N 53°50' E 006°54'816.4
2018-Jul-15 20:31N 53°48' E 006°41'917.1
2018-Jul-15 20:00N 53°46' E 006°26'916.6
2018-Jul-15 19:30N 53°44' E 006°12'816.3
2018-Jul-15 19:00N 53°41' E 005°60'816.2
2018-Jul-15 18:30N 53°38' E 005°47'816.1
2018-Jul-15 18:00N 53°35' E 005°34'917.8
2018-Jul-15 17:30N 53°33' E 005°20'918.0
2018-Jul-15 17:00N 53°29' E 005°06'917.7
2018-Jul-15 16:30N 53°26' E 004°53'816.7
2018-Jul-15 16:00N 53°21' E 004°41'917.4
2018-Jul-15 15:31N 53°14' E 004°33'917.6
2018-Jul-15 15:00N 53°06' E 004°26'917.6
2018-Jul-15 14:31N 52°58' E 004°20'918.3
2018-Jul-15 14:00N 52°50' E 004°14'918.5
2018-Jul-15 13:30N 52°43' E 004°04'918.6
2018-Jul-15 13:01N 52°36' E 003°53'918.4
2018-Jul-15 12:30N 52°30' E 003°42'918.2
2018-Jul-15 12:00N 52°23' E 003°31'917.3
2018-Jul-15 11:31N 52°15' E 003°27'918.0
2018-Jul-15 11:00N 52°06' E 003°25'917.9
2018-Jul-15 10:30N 51°57' E 003°23'916.9
2018-Jul-15 10:00N 51°49' E 003°18'815.1
2018-Jul-15 09:30N 51°42' E 003°14'511.2
2018-Jul-15 09:00N 51°37' E 003°11'612.2
2018-Jul-15 08:30N 51°32' E 003°06'713.0
2018-Jul-15 08:00N 51°27' E 002°60'713.3
2018-Jul-15 07:30N 51°24' E 003°10'917.3
2018-Jul-15 07:00N 51°25' E 003°23'815.5
2018-Jul-15 06:30N 51°26' E 003°36'510.4
2018-Jul-15 06:01N 51°23' E 003°43'713.3
2018-Jul-15 05:30N 51°21' E 003°53'713.6
2018-Jul-15 05:00N 51°26' E 004°01'611.4
2018-Jul-15 04:30N 51°22' E 004°08'4 8.7
2018-Jul-15 04:00N 51°21' E 004°15'2 3.0
2018-Jul-15 03:29N 51°20' E 004°17'0 0.0
2018-Jul-15 03:00N 51°20' E 004°17'0 0.0
2018-Jul-15 02:31N 51°20' E 004°17'0 0.0
2018-Jul-15 02:01N 51°20' E 004°17'0 0.0
2018-Jul-15 01:30N 51°20' E 004°17'0 0.0
2018-Jul-15 01:00N 51°20' E 004°17'0 0.0
2018-Jul-15 00:30N 51°20' E 004°17'0 0.0
2018-Jul-15 00:01N 51°20' E 004°17'0 0.0
2018-Jul-14 23:30N 51°20' E 004°17'0 0.0
2018-Jul-14 23:01N 51°20' E 004°17'0 0.0
2018-Jul-14 22:31N 51°20' E 004°17'0 0.0
2018-Jul-14 22:00N 51°20' E 004°17'0 0.0
2018-Jul-14 21:30N 51°20' E 004°17'0 0.0
2018-Jul-14 21:01N 51°20' E 004°17'0 0.0
2018-Jul-14 20:31N 51°20' E 004°17'0 0.0
2018-Jul-14 20:00N 51°20' E 004°17'0 0.0
2018-Jul-14 19:31N 51°20' E 004°17'0 0.0
2018-Jul-14 19:00N 51°20' E 004°17'0 0.0
2018-Jul-14 18:31N 51°20' E 004°17'0 0.0
2018-Jul-14 18:00N 51°20' E 004°17'0 0.0
2018-Jul-14 17:31N 51°20' E 004°17'0 0.0
2018-Jul-14 17:01N 51°20' E 004°17'0 0.0
2018-Jul-14 16:31N 51°20' E 004°17'0 0.0
2018-Jul-14 16:00N 51°20' E 004°17'0 0.0
2018-Jul-14 15:31N 51°20' E 004°17'0 0.0
2018-Jul-14 15:00N 51°20' E 004°17'0 0.0
2018-Jul-14 14:31N 51°20' E 004°17'0 0.0
2018-Jul-14 13:31N 51°20' E 004°17'0 0.0
2018-Jul-14 13:01N 51°20' E 004°17'0 0.0
2018-Jul-14 12:31N 51°20' E 004°17'0 0.0
2018-Jul-14 12:00N 51°20' E 004°17'0 0.0
2018-Jul-14 11:30N 51°20' E 004°17'0 0.0
2018-Jul-14 11:01N 51°20' E 004°17'0 0.0
2018-Jul-14 10:31N 51°20' E 004°17'0 0.0
2018-Jul-14 10:00N 51°20' E 004°17'0 0.0
2018-Jul-14 09:30N 51°20' E 004°17'0 0.0
2018-Jul-14 09:01N 51°20' E 004°17'0 0.0
2018-Jul-14 08:31N 51°20' E 004°17'0 0.0
2018-Jul-14 08:01N 51°20' E 004°17'0 0.0
2018-Jul-14 07:31N 51°20' E 004°17'0 0.0
2018-Jul-14 07:00N 51°20' E 004°17'0 0.0
2018-Jul-14 06:30N 51°20' E 004°17'0 0.0
2018-Jul-14 06:00N 51°20' E 004°17'0 0.0
2018-Jul-14 05:31N 51°20' E 004°17'0 0.0
2018-Jul-14 05:00N 51°20' E 004°17'0 0.0
2018-Jul-14 04:30N 51°20' E 004°17'0 0.0
2018-Jul-14 04:01N 51°20' E 004°17'0 0.0
2018-Jul-14 03:30N 51°20' E 004°17'0 0.0
2018-Jul-14 03:00N 51°20' E 004°17'0 0.0
2018-Jul-14 02:30N 51°20' E 004°17'0 0.0
2018-Jul-14 02:01N 51°20' E 004°17'0 0.0
2018-Jul-14 01:31N 51°20' E 004°17'0 0.0
2018-Jul-14 01:00N 51°20' E 004°17'0 0.0
2018-Jul-14 00:30N 51°20' E 004°17'0 0.0
2018-Jul-14 00:01N 51°20' E 004°17'0 0.0
2018-Jul-13 23:31N 51°20' E 004°17'0 0.0
2018-Jul-13 23:01N 51°20' E 004°17'0 0.0
2018-Jul-13 22:30N 51°20' E 004°17'0 0.2
2018-Jul-13 22:00N 51°20' E 004°17'3 6.1
2018-Jul-13 21:30N 51°22' E 004°13'5 9.2
2018-Jul-13 21:00N 51°22' E 004°06'510.0
2018-Jul-13 20:30N 51°26' E 004°01'510.8
2018-Jul-13 20:00N 51°22' E 003°55'510.2
2018-Jul-13 19:30N 51°21' E 003°47'612.4
2018-Jul-13 19:01N 51°26' E 003°41'5 9.4
2018-Jul-13 18:30N 51°25' E 003°33'612.2
2018-Jul-13 18:00N 51°24' E 003°23'713.0
2018-Jul-13 17:30N 51°24' E 003°13'713.9
2018-Jul-13 17:01N 51°24' E 003°02'714.9
2018-Jul-13 16:31N 51°22' E 002°51'611.6
2018-Jul-13 16:00N 51°22' E 002°42'611.5
2018-Jul-13 15:30N 51°22' E 002°32'1020.0
2018-Jul-13 15:00N 51°19' E 002°17'2121.0
2018-Jul-13 14:01N 51°08' E 001°49'1121.9
2018-Jul-13 13:30N 50°59' E 001°37'1121.8
2018-Jul-13 13:00N 50°50' E 001°28'1120.8
2018-Jul-13 12:28N 50°40' E 001°19'1020.4
2018-Jul-13 11:57N 50°34' E 001°07'919.9
2018-Jul-13 11:31N 50°28' E 000°56'1020.0
2018-Jul-13 11:00N 50°25' E 000°41'1019.5
2018-Jul-13 10:31N 50°22' E 000°27'1019.6
2018-Jul-13 10:01N 50°19' E 000°12'1020.3
2018-Jul-13 09:30N 50°16' W 000°03'1020.9
2018-Jul-13 09:01N 50°13' W 000°19'1121.2
2018-Jul-13 08:30N 50°11' W 000°35'1121.7
2018-Jul-13 08:01N 50°09' W 000°51'1121.9
2018-Jul-13 07:31N 50°06' W 001°08'1122.2
2018-Jul-13 07:00N 50°03' W 001°25'1122.0
2018-Jul-13 06:31N 50°01' W 001°41'1121.9
2018-Jul-13 06:01N 49°58' W 001°58'1422.6
2018-Jul-13 05:24N 49°55' W 002°19'1121.7
2018-Jul-13 04:53N 49°52' W 002°36'921.4
2018-Jul-13 04:28N 49°50' W 002°49'1021.0
2018-Jul-13 04:00N 49°48' W 003°04'8677.1
2018-Jul-13 04:00N 49°42' W 003°12'511.1 140 / 121021.410.8 17.013.519.0
2018-Jul-13 03:30N 49°45' W 003°19'1020.0
2018-Jul-13 03:00N 49°45' W 003°35'1020.2
2018-Jul-13 02:30N 49°43' W 003°50'1420.0
2018-Jul-13 01:47N 49°38' W 004°11'619.6
2018-Jul-13 01:30N 49°36' W 004°19'1019.4
2018-Jul-13 00:58N 49°33' W 004°34'3018.9
2018-Jul-12 23:22N 49°26' W 005°20'918.8
2018-Jul-12 22:53N 49°24' W 005°33'918.7
2018-Jul-12 22:26N 49°22' W 005°45'2517.6
2018-Jul-12 21:00N 49°18' W 006°24'640.5 040 / 151022.710.8 19.015.617.0
2018-Jul-12 20:51N 49°21' W 006°31'819.7
2018-Jul-12 20:28N 49°22' W 006°43'33529.2
2018-Jul-12 09:00N 49°24' W 015°18'31 4.5 050 / 161025.410.8 16.0 8.117.0
2018-Jul-12 02:00N 49°24' W 016°06'5125.6 170 / 101026.510.8 16.012.417.0
2018-Jul-12 00:00N 49°18' W 017°24'5919.7 160 / 111027.210.8 21.516.617.0
2018-Jul-11 21:00N 49°12' W 018°54'9919.8 300 / 41028.210.8 17.011.515.0
2018-Jul-11 16:00N 49°00' W 021°24'22920.8 320 / 151029.010.8 19.015.617.0
2018-Jul-11 05:00N 48°24' W 027°06'13919.9 270 / 81030.710.8 17.011.517.0
2018-Jul-10 22:00N 47°54' W 030°30'27220.9 290 / 81031.410.8 19.015.617.0
2018-Jul-10 09:00N 46°36' W 036°54'5317.6 200 / 81029.110.8 16.012.417.0
2018-Jul-10 06:00N 46°18' W 038°06'12821.3 200 / 111028.410.8 17.011.517.0
2018-Jul-10 00:00N 45°36' W 041°00'   230 / 81028.4 5.4 21.014.119.0
Track history (hours):
 
Tides and Currents Weather Stations Pressure Air Temp Water Temp Dewpoint Dewpoint Depression Visibility Wind Speed Wind Dir Waves Ship Positions

Charleston Express

Owner: Marine Transport Management, Inc., Jacksonville, FL. More information available from US FCC via Universal Licensing System and Coast Guard Vessel Documentation Center.

Last reported at 2018-Jul-19 01:31 UTC. Time now 2018-Jul-19 01:47 UTC.
Position N 50°41' E 000°43'.

Length 243 m; draft 10.3 m.

Type: Ship. MMSI: 367168640.

Date/timePositionNaut miles runAvg speedWind from/ knotsBaromVisibWave heightAir tempDewpointWater temp
2018-Jul-19 01:31N 50°41' E 000°43'917.9
2018-Jul-19 01:01N 50°46' E 000°54'918.8
2018-Jul-19 00:30N 50°52' E 001°06'1019.4
2018-Jul-19 00:01N 50°59' E 001°17'1121.2
2018-Jul-18 23:30N 51°05' E 001°31'1021.0
2018-Jul-18 23:01N 51°14' E 001°40'1020.5
2018-Jul-18 22:31N 51°24' E 001°45'918.9
2018-Jul-18 22:01N 51°33' E 001°46'918.6
2018-Jul-18 21:30N 51°42' E 001°45'917.3
2018-Jul-18 21:00N 51°51' E 001°41'510.6
2018-Jul-18 20:30N 51°49' E 001°33'917.2
2018-Jul-18 20:00N 51°41' E 001°27'918.4
2018-Jul-18 19:30N 51°35' E 001°16'918.5
2018-Jul-18 19:00N 51°30' E 001°03'917.3
2018-Jul-18 18:30N 51°29' E 000°49'815.1
2018-Jul-18 18:00N 51°30' E 000°37'4 8.2
2018-Jul-18 17:31N 51°30' E 000°30'0 0.0
2018-Jul-18 17:01N 51°30' E 000°30'0 0.0
2018-Jul-18 16:31N 51°30' E 000°30'0 0.0
2018-Jul-18 16:00N 51°30' E 000°30'0 0.0
2018-Jul-18 15:30N 51°30' E 000°30'0 0.0
2018-Jul-18 15:01N 51°30' E 000°30'0 0.0
2018-Jul-18 14:31N 51°30' E 000°30'0 0.0
2018-Jul-18 13:30N 51°30' E 000°30'0 0.0
2018-Jul-18 13:00N 51°30' E 000°30'0 0.0
2018-Jul-18 12:30N 51°30' E 000°30'0 0.0
2018-Jul-18 12:00N 51°30' E 000°30'0 0.0
2018-Jul-18 11:30N 51°30' E 000°30'0 0.0
2018-Jul-18 10:31N 51°30' E 000°30'0 0.0
2018-Jul-18 10:01N 51°30' E 000°30'0 0.0
2018-Jul-18 09:30N 51°30' E 000°30'0 0.0
2018-Jul-18 09:00N 51°30' E 000°30'0 0.0
2018-Jul-18 08:31N 51°30' E 000°30'0 0.0
2018-Jul-18 08:01N 51°30' E 000°30'0 0.0
2018-Jul-18 07:31N 51°30' E 000°30'0 0.0
2018-Jul-18 07:00N 51°30' E 000°30'0 0.0
2018-Jul-18 06:31N 51°30' E 000°30'0 0.0
2018-Jul-18 06:01N 51°30' E 000°30'0 0.0
2018-Jul-18 05:30N 51°30' E 000°30'0 0.0
2018-Jul-18 05:01N 51°30' E 000°30'0 0.0
2018-Jul-18 04:30N 51°30' E 000°30'0 0.0
2018-Jul-18 04:00N 51°30' E 000°30'0 0.0
2018-Jul-18 03:31N 51°30' E 000°30'0 0.0
2018-Jul-18 03:01N 51°30' E 000°30'0 0.1
2018-Jul-18 02:30N 51°30' E 000°30'2 3.1
2018-Jul-18 02:00N 51°30' E 000°33'5 9.7
2018-Jul-18 01:30N 51°30' E 000°40'612.3
2018-Jul-18 01:00N 51°30' E 000°50'611.0
2018-Jul-18 00:30N 51°29' E 000°59'612.3
2018-Jul-18 00:00N 51°32' E 001°08'815.4
2018-Jul-17 23:30N 51°36' E 001°18'816.3
2018-Jul-17 23:00N 51°42' E 001°27'815.8
2018-Jul-17 22:30N 51°49' E 001°34'510.0
2018-Jul-17 22:00N 51°51' E 001°41'3 6.6
2018-Jul-17 21:30N 51°54' E 001°44'5 9.3
2018-Jul-17 21:00N 51°58' E 001°47'713.1
2018-Jul-17 20:30N 52°04' E 001°53'612.8
2018-Jul-17 20:00N 52°09' E 001°59'612.5
2018-Jul-17 19:30N 52°13' E 002°07'612.5
2018-Jul-17 19:00N 52°17' E 002°15'612.3
2018-Jul-17 18:30N 52°21' E 002°23'612.2
2018-Jul-17 18:00N 52°25' E 002°30'713.9
2018-Jul-17 17:30N 52°27' E 002°41'915.9
2018-Jul-17 16:55N 52°27' E 002°56'715.9
2018-Jul-17 16:30N 52°27' E 003°07'815.6
2018-Jul-17 16:00N 52°29' E 003°20'916.2
2018-Jul-17 15:28N 52°36' E 003°28'816.7
2018-Jul-17 15:00N 52°42' E 003°37'3317.0
2018-Jul-17 13:04N 53°06' E 004°13'116.8
2018-Jul-17 12:59N 53°07' E 004°15'816.2
2018-Jul-17 12:31N 53°12' E 004°24'918.0
2018-Jul-17 12:00N 53°20' E 004°31'917.4
2018-Jul-17 11:30N 53°28' E 004°39'917.7
2018-Jul-17 11:00N 53°31' E 004°52'917.4
2018-Jul-17 10:30N 53°35' E 005°06'817.2
2018-Jul-17 10:01N 53°37' E 005°19'917.2
2018-Jul-17 09:31N 53°40' E 005°33'1017.7
2018-Jul-17 08:56N 53°43' E 005°49'1018.1
2018-Jul-17 08:24N 53°46' E 006°05'410.8
2018-Jul-17 08:00N 53°42' E 006°06'1278.7 130 / 51012.8 5.4 21.016.117.0
2018-Jul-17 07:51N 53°49' E 006°22'719.5
2018-Jul-17 07:30N 53°51' E 006°33'1020.0
2018-Jul-17 07:00N 53°53' E 006°49'1020.2
2018-Jul-17 06:30N 53°55' E 007°06'1120.1
2018-Jul-17 05:58N 53°58' E 007°24'919.8
2018-Jul-17 05:30N 53°59' E 007°39'817.0
2018-Jul-17 05:00N 53°53' E 007°49'714.9
2018-Jul-17 04:30N 53°51' E 008°01'918.3
2018-Jul-17 04:01N 53°45' E 008°13'816.9
2018-Jul-17 03:31N 53°40' E 008°24'612.2
2018-Jul-17 03:00N 53°35' E 008°31'0 0.9
2018-Jul-17 02:30N 53°35' E 008°32'0 0.0
2018-Jul-17 02:00N 53°35' E 008°32'0 0.0
2018-Jul-17 01:29N 53°35' E 008°32'0 0.0
2018-Jul-17 00:59N 53°35' E 008°32'0 0.0
2018-Jul-17 00:29N 53°35' E 008°32'0 0.0
2018-Jul-16 23:29N 53°35' E 008°32'0 0.0
2018-Jul-16 22:59N 53°35' E 008°32'0 0.0
2018-Jul-16 22:29N 53°35' E 008°32'0 0.0
2018-Jul-16 21:59N 53°35' E 008°32'0 0.0
2018-Jul-16 21:29N 53°35' E 008°32'0 0.0
2018-Jul-16 20:59N 53°35' E 008°32'0 0.0
2018-Jul-16 20:29N 53°35' E 008°32'0 0.0
2018-Jul-16 19:59N 53°35' E 008°32'0 0.0
2018-Jul-16 19:29N 53°35' E 008°32'0 0.0
2018-Jul-16 18:59N 53°35' E 008°32'0 0.0
2018-Jul-16 18:29N 53°35' E 008°32'0 0.0
2018-Jul-16 17:59N 53°35' E 008°32'0 0.0
2018-Jul-16 17:29N 53°35' E 008°32'0 0.0
2018-Jul-16 16:59N 53°35' E 008°32'0 0.0
2018-Jul-16 16:29N 53°35' E 008°32'0 0.0
2018-Jul-16 15:59N 53°35' E 008°32'0 0.0
2018-Jul-16 15:29N 53°35' E 008°32'0 0.0
2018-Jul-16 14:59N 53°35' E 008°32'0 0.0
2018-Jul-16 14:29N 53°35' E 008°32'0 0.0
2018-Jul-16 13:59N 53°35' E 008°32'0 0.0
2018-Jul-16 13:29N 53°35' E 008°32'0 0.0
2018-Jul-16 12:59N 53°35' E 008°32'0 0.0
2018-Jul-16 12:29N 53°35' E 008°32'0 0.0
2018-Jul-16 11:59N 53°35' E 008°32'0 0.0
2018-Jul-16 11:29N 53°35' E 008°32'0 0.0
2018-Jul-16 10:59N 53°35' E 008°32'0 0.0
2018-Jul-16 10:29N 53°35' E 008°32'0 0.0
2018-Jul-16 09:59N 53°35' E 008°32'0 0.0
2018-Jul-16 09:29N 53°35' E 008°32'0 0.0
2018-Jul-16 08:59N 53°35' E 008°32'0 0.0
2018-Jul-16 08:29N 53°35' E 008°32'0 0.0
2018-Jul-16 07:59N 53°35' E 008°32'0 0.0
2018-Jul-16 07:29N 53°35' E 008°32'0 0.0
2018-Jul-16 06:59N 53°35' E 008°32'0 0.0
2018-Jul-16 06:29N 53°35' E 008°32'0 0.7
2018-Jul-16 06:00N 53°35' E 008°31'3 6.3
2018-Jul-16 05:30N 53°38' E 008°28'4 8.2
2018-Jul-16 05:00N 53°40' E 008°22'611.3
2018-Jul-16 04:30N 53°44' E 008°15'510.8
2018-Jul-16 04:00N 53°48' E 008°09'611.5
2018-Jul-16 03:30N 53°51' E 008°01'612.2
2018-Jul-16 03:00N 53°53' E 007°51'2 3.5
2018-Jul-16 02:30N 53°55' E 007°53'3 6.3
2018-Jul-16 02:00N 53°52' E 007°54'510.5
2018-Jul-16 01:30N 53°53' E 007°45'4 7.9
2018-Jul-16 01:00N 53°52' E 007°39'0 0.8
2018-Jul-16 00:30N 53°52' E 007°38'0 0.3
2018-Jul-16 00:00N 53°52' E 007°38'1 2.8
2018-Jul-15 23:30N 53°53' E 007°36'4 7.7
2018-Jul-15 23:00N 53°54' E 007°30'4 8.6
2018-Jul-15 22:30N 53°53' E 007°23'510.1
2018-Jul-15 22:00N 53°52' E 007°14'610.9
2018-Jul-15 21:30N 53°51' E 007°05'713.3
2018-Jul-15 21:00N 53°50' E 006°54'816.4
2018-Jul-15 20:31N 53°48' E 006°41'917.1
2018-Jul-15 20:00N 53°46' E 006°26'916.6
2018-Jul-15 19:30N 53°44' E 006°12'816.3
2018-Jul-15 19:00N 53°41' E 005°60'816.2
2018-Jul-15 18:30N 53°38' E 005°47'816.1
2018-Jul-15 18:00N 53°35' E 005°34'917.8
2018-Jul-15 17:30N 53°33' E 005°20'918.0
2018-Jul-15 17:00N 53°29' E 005°06'917.7
2018-Jul-15 16:30N 53°26' E 004°53'816.7
2018-Jul-15 16:00N 53°21' E 004°41'917.4
2018-Jul-15 15:31N 53°14' E 004°33'917.6
2018-Jul-15 15:00N 53°06' E 004°26'917.6
2018-Jul-15 14:31N 52°58' E 004°20'918.3
2018-Jul-15 14:00N 52°50' E 004°14'918.5
2018-Jul-15 13:30N 52°43' E 004°04'918.6
2018-Jul-15 13:01N 52°36' E 003°53'918.4
2018-Jul-15 12:30N 52°30' E 003°42'918.2
2018-Jul-15 12:00N 52°23' E 003°31'917.3
2018-Jul-15 11:31N 52°15' E 003°27'918.0
2018-Jul-15 11:00N 52°06' E 003°25'917.9
2018-Jul-15 10:30N 51°57' E 003°23'916.9
2018-Jul-15 10:00N 51°49' E 003°18'815.1
2018-Jul-15 09:30N 51°42' E 003°14'511.2
2018-Jul-15 09:00N 51°37' E 003°11'612.2
2018-Jul-15 08:30N 51°32' E 003°06'713.0
2018-Jul-15 08:00N 51°27' E 002°60'713.3
2018-Jul-15 07:30N 51°24' E 003°10'917.3
2018-Jul-15 07:00N 51°25' E 003°23'815.5
2018-Jul-15 06:30N 51°26' E 003°36'510.4
2018-Jul-15 06:01N 51°23' E 003°43'713.3
2018-Jul-15 05:30N 51°21' E 003°53'713.6
2018-Jul-15 05:00N 51°26' E 004°01'611.4
2018-Jul-15 04:30N 51°22' E 004°08'4 8.7
2018-Jul-15 04:00N 51°21' E 004°15'2 3.0
2018-Jul-15 03:29N 51°20' E 004°17'0 0.0
2018-Jul-15 03:00N 51°20' E 004°17'0 0.0
2018-Jul-15 02:31N 51°20' E 004°17'0 0.0
2018-Jul-15 02:01N 51°20' E 004°17'0 0.0
2018-Jul-15 01:30N 51°20' E 004°17'0 0.0
2018-Jul-15 01:00N 51°20' E 004°17'0 0.0
2018-Jul-15 00:30N 51°20' E 004°17'0 0.0
2018-Jul-15 00:01N 51°20' E 004°17'0 0.0
2018-Jul-14 23:30N 51°20' E 004°17'0 0.0
2018-Jul-14 23:01N 51°20' E 004°17'0 0.0
2018-Jul-14 22:31N 51°20' E 004°17'0 0.0
2018-Jul-14 22:00N 51°20' E 004°17'0 0.0
2018-Jul-14 21:30N 51°20' E 004°17'0 0.0
2018-Jul-14 21:01N 51°20' E 004°17'0 0.0
2018-Jul-14 20:31N 51°20' E 004°17'0 0.0
2018-Jul-14 20:00N 51°20' E 004°17'0 0.0
2018-Jul-14 19:31N 51°20' E 004°17'0 0.0
2018-Jul-14 19:00N 51°20' E 004°17'0 0.0
2018-Jul-14 18:31N 51°20' E 004°17'0 0.0
2018-Jul-14 18:00N 51°20' E 004°17'0 0.0
2018-Jul-14 17:31N 51°20' E 004°17'0 0.0
2018-Jul-14 17:01N 51°20' E 004°17'0 0.0
2018-Jul-14 16:31N 51°20' E 004°17'0 0.0
2018-Jul-14 16:00N 51°20' E 004°17'0 0.0
2018-Jul-14 15:31N 51°20' E 004°17'0 0.0
2018-Jul-14 15:00N 51°20' E 004°17'0 0.0
2018-Jul-14 14:31N 51°20' E 004°17'0 0.0
2018-Jul-14 13:31N 51°20' E 004°17'0 0.0
2018-Jul-14 13:01N 51°20' E 004°17'0 0.0
2018-Jul-14 12:31N 51°20' E 004°17'0 0.0
2018-Jul-14 12:00N 51°20' E 004°17'0 0.0
2018-Jul-14 11:30N 51°20' E 004°17'0 0.0
2018-Jul-14 11:01N 51°20' E 004°17'0 0.0
2018-Jul-14 10:31N 51°20' E 004°17'0 0.0
2018-Jul-14 10:00N 51°20' E 004°17'0 0.0
2018-Jul-14 09:30N 51°20' E 004°17'0 0.0
2018-Jul-14 09:01N 51°20' E 004°17'0 0.0
2018-Jul-14 08:31N 51°20' E 004°17'0 0.0
2018-Jul-14 08:01N 51°20' E 004°17'0 0.0
2018-Jul-14 07:31N 51°20' E 004°17'0 0.0
2018-Jul-14 07:00N 51°20' E 004°17'0 0.0
2018-Jul-14 06:30N 51°20' E 004°17'0 0.0
2018-Jul-14 06:00N 51°20' E 004°17'0 0.0
2018-Jul-14 05:31N 51°20' E 004°17'0 0.0
2018-Jul-14 05:00N 51°20' E 004°17'0 0.0
2018-Jul-14 04:30N 51°20' E 004°17'0 0.0
2018-Jul-14 04:01N 51°20' E 004°17'0 0.0
2018-Jul-14 03:30N 51°20' E 004°17'0 0.0
2018-Jul-14 03:00N 51°20' E 004°17'0 0.0
2018-Jul-14 02:30N 51°20' E 004°17'0 0.0
2018-Jul-14 02:01N 51°20' E 004°17'0 0.0
2018-Jul-14 01:31N 51°20' E 004°17'0 0.0
2018-Jul-14 01:00N 51°20' E 004°17'0 0.0
2018-Jul-14 00:30N 51°20' E 004°17'0 0.0
2018-Jul-14 00:01N 51°20' E 004°17'0 0.0
2018-Jul-13 23:31N 51°20' E 004°17'0 0.0
2018-Jul-13 23:01N 51°20' E 004°17'0 0.0
2018-Jul-13 22:30N 51°20' E 004°17'0 0.2
2018-Jul-13 22:00N 51°20' E 004°17'3 6.1
2018-Jul-13 21:30N 51°22' E 004°13'5 9.2
2018-Jul-13 21:00N 51°22' E 004°06'510.0
2018-Jul-13 20:30N 51°26' E 004°01'510.8
2018-Jul-13 20:00N 51°22' E 003°55'510.2
2018-Jul-13 19:30N 51°21' E 003°47'612.4
2018-Jul-13 19:01N 51°26' E 003°41'5 9.4
2018-Jul-13 18:30N 51°25' E 003°33'612.2
2018-Jul-13 18:00N 51°24' E 003°23'713.0
2018-Jul-13 17:30N 51°24' E 003°13'713.9
2018-Jul-13 17:01N 51°24' E 003°02'714.9
2018-Jul-13 16:31N 51°22' E 002°51'611.6
2018-Jul-13 16:00N 51°22' E 002°42'611.5
2018-Jul-13 15:30N 51°22' E 002°32'1020.0
2018-Jul-13 15:00N 51°19' E 002°17'2121.0
2018-Jul-13 14:01N 51°08' E 001°49'1121.9
2018-Jul-13 13:30N 50°59' E 001°37'1121.8
2018-Jul-13 13:00N 50°50' E 001°28'1120.8
2018-Jul-13 12:28N 50°40' E 001°19'1020.4
2018-Jul-13 11:57N 50°34' E 001°07'919.9
2018-Jul-13 11:31N 50°28' E 000°56'1020.0
2018-Jul-13 11:00N 50°25' E 000°41'1019.5
2018-Jul-13 10:31N 50°22' E 000°27'1019.6
2018-Jul-13 10:01N 50°19' E 000°12'1020.3
2018-Jul-13 09:30N 50°16' W 000°03'1020.9
2018-Jul-13 09:01N 50°13' W 000°19'1121.2
2018-Jul-13 08:30N 50°11' W 000°35'1121.7
2018-Jul-13 08:01N 50°09' W 000°51'1121.9
2018-Jul-13 07:31N 50°06' W 001°08'1122.2
2018-Jul-13 07:00N 50°03' W 001°25'1122.0
2018-Jul-13 06:31N 50°01' W 001°41'1121.9
2018-Jul-13 06:01N 49°58' W 001°58'1422.6
2018-Jul-13 05:24N 49°55' W 002°19'1121.7
2018-Jul-13 04:53N 49°52' W 002°36'921.4
2018-Jul-13 04:28N 49°50' W 002°49'1021.0
2018-Jul-13 04:00N 49°48' W 003°04'8677.1
2018-Jul-13 04:00N 49°42' W 003°12'511.1 140 / 121021.410.8 17.013.519.0
2018-Jul-13 03:30N 49°45' W 003°19'1020.0
2018-Jul-13 03:00N 49°45' W 003°35'1020.2
2018-Jul-13 02:30N 49°43' W 003°50'1420.0
2018-Jul-13 01:47N 49°38' W 004°11'619.6
2018-Jul-13 01:30N 49°36' W 004°19'1019.4
2018-Jul-13 00:58N 49°33' W 004°34'3018.9
2018-Jul-12 23:22N 49°26' W 005°20'918.8
2018-Jul-12 22:53N 49°24' W 005°33'918.7
2018-Jul-12 22:26N 49°22' W 005°45'2517.6
2018-Jul-12 21:00N 49°18' W 006°24'640.5 040 / 151022.710.8 19.015.617.0
2018-Jul-12 20:51N 49°21' W 006°31'819.7
2018-Jul-12 20:28N 49°22' W 006°43'33529.2
2018-Jul-12 09:00N 49°24' W 015°18'31 4.5 050 / 161025.410.8 16.0 8.117.0
2018-Jul-12 02:00N 49°24' W 016°06'5125.6 170 / 101026.510.8 16.012.417.0
2018-Jul-12 00:00N 49°18' W 017°24'5919.7 160 / 111027.210.8 21.516.617.0
2018-Jul-11 21:00N 49°12' W 018°54'9919.8 300 / 41028.210.8 17.011.515.0
2018-Jul-11 16:00N 49°00' W 021°24'22920.8 320 / 151029.010.8 19.015.617.0
2018-Jul-11 05:00N 48°24' W 027°06'13919.9 270 / 81030.710.8 17.011.517.0
2018-Jul-10 22:00N 47°54' W 030°30'27220.9 290 / 81031.410.8 19.015.617.0
2018-Jul-10 09:00N 46°36' W 036°54'5317.6 200 / 81029.110.8 16.012.417.0
2018-Jul-10 06:00N 46°18' W 038°06'12821.3 200 / 111028.410.8 17.011.517.0
2018-Jul-10 00:00N 45°36' W 041°00'   230 / 81028.4 5.4 21.014.119.0

Dump ship's entire track history